DW9321 Weather Reports


Display with metric or nautical units.
time (UTC)temp
F
wind
direction
speed
MPH
gust
MPH
rain 1hr
in
rain 24hr
in
rain mn
in
humidity
%
barometer
mb
20171211055521 43 297 13.0 22.0 0.00 0.00 0.00 10 1024.7
20171211054022 44 287 10.0 22.0 0.00 0.00 0.00 11 1024.9
20171211052512 44 296 11.0 21.0 0.00 0.00 0.00 11 1025.0
20171211051007 44 294 12.0 21.0 0.00 0.00 0.00 11 1025.2
20171211045503 43 293 7.0 18.0 0.00 0.00 0.00 11 1025.4
20171211044006 42 302 6.0 12.0 0.00 0.00 0.00 11 1025.4
20171211042453 41 27 1.0 7.0 0.00 0.00 0.00 12 1025.1
20171211040949 42 41 1.0 9.0 0.00 0.00 0.00 12 1025.1
20171211035444 42 33 2.0 6.0 0.00 0.00 0.00 11 1025.2
20171211033942 42 293 1.0 9.0 0.00 0.00 0.00 11 1025.3
20171211032444 42 311 4.0 13.0 0.00 0.00 0.00 11 1025.4
20171211030933 41 307 2.0 7.0 0.00 0.00 0.00 12 1025.4
20171211025432 41 359 0.0 8.0 0.00 0.00 0.00 12 1025.4
20171211023931 41 135 1.0 11.0 0.00 0.00 0.00 11 1025.6
20171211022427 42 281 7.0 18.0 0.00 0.00 0.00 11 1025.6
20171211020928 41 328 3.0 8.0 0.00 0.00 0.00 11 1025.4
20171211015430 41 285 1.0 14.0 0.00 0.00 0.00 11 1025.4
20171211013921 42 290 1.0 12.0 0.00 0.00 0.00 11 1025.4
20171211012410 41 300 3.0 9.0 0.00 0.00 0.00 11 1025.7
20171211010904 41 158 4.0 8.0 0.00 0.00 0.00 11 1025.8
20171211005404 41 318 2.0 10.0 0.00 0.00 0.00 11 1025.8
20171211003856 41 302 2.0 8.0 0.00 0.00 0.00 11 1025.9
20171211002358 41 305 1.0 7.0 0.00 0.00 0.00 12 1026.0
20171211000848 41 295 5.0 12.0 0.00 0.00 0.00 11 1025.9
20171210235405 41 290 7.0 15.0 0.00 0.00 0.00 11 1025.9
20171210233840 42 290 6.0 13.0 0.00 0.00 0.00 11 1025.9
20171210232345 42 283 4.0 17.0 0.00 0.00 0.00 11 1025.9
20171210230832 43 305 6.0 14.0 0.00 0.00 0.00 10 1026.0
20171210225324 44 325 7.0 16.0 0.00 0.00 0.00 9 1025.9
20171210223819 45 294 9.0 20.0 0.00 0.00 0.00 9 1025.9
20171210222316 46 302 9.0 26.0 0.00 0.00 0.00 9 1026.0
20171210220817 46 309 8.0 19.0 0.00 0.00 0.00 9 1026.1
20171210215309 47 277 6.0 19.0 0.00 0.00 0.00 8 1026.0
20171210213805 47 299 8.0 20.0 0.00 0.00 0.00 8 1026.2
20171210212310 47 310 10.0 20.0 0.00 0.00 0.00 8 1026.3
20171210210759 48 287 8.0 21.0 0.00 0.00 0.00 8 1026.3
20171210205251 47 328 13.0 24.0 0.00 0.00 0.00 8 1026.5
20171210203747 47 283 10.0 23.0 0.00 0.00 0.00 8 1026.7
20171210202245 48 305 8.0 17.0 0.00 0.00 0.00 7 1026.7
20171210200808 48 286 8.0 21.0 0.00 0.00 0.00 7 1026.8
20171210195242 48 284 10.0 21.0 0.00 0.00 0.00 7 1026.9
20171210193729 48 302 9.0 19.0 0.00 0.00 0.00 8 1027.1
20171210192226 48 248 7.0 21.0 0.00 0.00 0.00 8 1027.3
20171210190721 48 285 11.0 19.0 0.00 0.00 0.00 7 1027.4
20171210185215 48 295 7.0 17.0 0.00 0.00 0.00 7 1027.8
20171210183711 48 296 8.0 16.0 0.00 0.00 0.00 8 1027.9
20171210182224 47 316 11.0 19.0 0.00 0.00 0.00 7 1027.9
20171210180702 47 300 7.0 15.0 0.00 0.00 0.00 7 1028.0
20171210175200 47 307 5.0 16.0 0.00 0.00 0.00 8 1028.1
20171210173655 47 300 3.0 10.0 0.00 0.00 0.00 8 1028.2
20171210172156 47 309 5.0 13.0 0.00 0.00 0.00 8 1028.3
20171210170651 46 330 4.0 8.0 0.00 0.00 0.00 8 1028.2
20171210165148 45 307 9.0 19.0 0.00 0.00 0.00 8 1028.4
20171210163637 45 289 3.0 10.0 0.00 0.00 0.00 9 1028.4
20171210162135 44 307 5.0 11.0 0.00 0.00 0.00 9 1028.5
20171210160630 43 293 4.0 7.0 0.00 0.00 0.00 10 1028.5
20171210155123 42 283 2.0 10.0 0.00 0.00 0.00 11 1028.5
20171210153619 42 136 0.0 3.0 0.00 0.00 0.00 11 1028.4
20171210152114 38 308 1.0 3.0 0.00 0.00 0.00 13 1028.5
20171210150619 36 114 1.0 3.0 0.00 0.00 0.00 13 1028.4
20171210145120 35 60 0.0 2.0 0.00 0.00 0.00 13 1028.3
20171210143601 35 68 0.0 3.0 0.00 0.00 0.00 14 1028.1
20171210142057 35 160 0.0 3.0 0.00 0.00 0.00 13 1028.2
20171210140601 35 119 1.0 4.0 0.00 0.00 0.00 13 1028.3
20171210135054 35 56 0.0 2.0 0.00 0.00 0.00 14 1028.1
20171210133541 35 71 1.0 3.0 0.00 0.00 0.00 15 1028.1
20171210132038 36 90 0.0 3.0 0.00 0.00 0.00 13 1028.1
20171210130547 35 89 0.0 2.0 0.00 0.00 0.00 14 1028.1
20171210125031 36 126 0.0 6.0 0.00 0.00 0.00 13 1028.0
20171210123542 36 34 0.0 5.0 0.00 0.00 0.00 13 1028.0
20171210122025 35 103 0.0 2.0 0.00 0.00 0.00 15 1028.0
20171210120516 35 108 0.0 2.0 0.00 0.00 0.00 14 1027.9
20171210115021 36 109 1.0 3.0 0.00 0.00 0.00 13 1027.9
20171210113522 36 19 0.0 2.0 0.00 0.00 0.00 13 1027.9
20171210112003 36 44 1.0 4.0 0.00 0.00 0.00 14 1027.9
20171210110512 36 113 0.0 4.0 0.00 0.00 0.00 14 1028.0
20171210105002 35 109 0.0 1.0 0.00 0.00 0.00 15 1027.9
20171210103508 35 123 1.0 2.0 0.00 0.00 0.00 15 1028.0
20171210101945 35 11 1.0 4.0 0.00 0.00 0.00 15 1028.1
20171210100440 33 98 0.0 2.0 0.00 0.00 0.00 16 1028.3
20171210094959 35 46 0.0 2.0 0.00 0.00 0.00 15 1028.3
20171210093503 35 335 0.0 2.0 0.00 0.00 0.00 17 1028.4
20171210091938 34 98 1.0 5.0 0.00 0.00 0.00 17 1028.4
20171210090428 36 297 1.0 4.0 0.00 0.00 0.00 16 1028.3
20171210084917 34 120 0.0 3.0 0.00 0.00 0.00 17 1028.4
20171210083414 35 46 0.0 5.0 0.00 0.00 0.00 17 1028.4
20171210081911 36 57 1.0 3.0 0.00 0.00 0.00 16 1028.4
20171210080416 35 131 0.0 3.0 0.00 0.00 0.00 17 1028.5
20171210074905 34 295 0.0 2.0 0.00 0.00 0.00 17 1028.5
20171210073354 35 51 1.0 3.0 0.00 0.00 0.00 17 1028.3
20171210071852 35 72 1.0 6.0 0.00 0.00 0.00 17 1028.4
20171210070345 35 38 1.0 4.0 0.00 0.00 0.00 17 1028.4
20171210064853 34 91 0.0 3.0 0.00 0.00 0.00 18 1028.4
20171210063344 34 63 1.0 3.0 0.00 0.00 0.00 18 1028.4
20171210061852 35 109 0.0 1.0 0.00 0.00 0.00 17 1028.6
20171210060342 34 120 0.0 1.0 0.00 0.00 0.00 17 1028.7